createdAt,value
2022-12-04T00:01:58.170Z,30.50
2022-12-04T00:04:24.681Z,31.63
2022-12-04T00:06:55.553Z,32.47
2022-12-04T00:09:28.089Z,32.13
2022-12-04T00:11:54.597Z,31.77
2022-12-04T00:14:21.148Z,31.70
2022-12-04T00:16:47.700Z,32.03
2022-12-04T00:19:14.214Z,32.03
2022-12-04T00:21:40.722Z,32.05
2022-12-04T00:24:07.341Z,31.77
2022-12-04T00:26:34.628Z,32.25
2022-12-04T00:29:02.374Z,32.70
2022-12-04T00:31:30.320Z,30.98
2022-12-04T00:33:57.634Z,32.40
2022-12-04T00:36:26.856Z,32.05
2022-12-04T00:38:54.012Z,32.28
2022-12-04T00:41:24.303Z,31.60
2022-12-04T00:43:51.152Z,33.13
2022-12-04T00:46:18.110Z,31.90
2022-12-04T00:48:45.412Z,31.20
2022-12-04T00:51:14.947Z,32.00
2022-12-04T00:53:42.201Z,30.50
2022-12-04T00:56:12.196Z,31.52
2022-12-04T00:58:38.777Z,32.63
2022-12-04T01:01:17.422Z,31.98
2022-12-04T01:03:44.460Z,31.42
2022-12-04T01:06:26.770Z,32.08
2022-12-04T01:08:55.004Z,31.08
2022-12-04T01:11:23.157Z,31.13
2022-12-04T01:13:49.791Z,32.13
2022-12-04T01:16:18.853Z,31.83
2022-12-04T01:18:48.265Z,31.23
2022-12-04T01:21:15.037Z,29.65
2022-12-04T01:23:41.593Z,32.75
2022-12-04T01:26:08.619Z,30.98
2022-12-04T01:28:35.490Z,31.20
2022-12-04T01:31:10.364Z,31.38
2022-12-04T01:33:37.879Z,32.30
2022-12-04T01:36:07.567Z,31.58
2022-12-04T01:38:35.090Z,31.83
2022-12-04T01:41:02.152Z,32.95
2022-12-04T01:43:32.689Z,31.85
2022-12-04T01:46:00.552Z,33.25
2022-12-04T01:48:33.018Z,30.30
2022-12-04T01:51:37.756Z,34.60
2022-12-04T01:54:11.792Z,32.78
2022-12-04T01:56:49.008Z,30.73
2022-12-04T01:59:19.061Z,32.67
2022-12-04T02:02:03.974Z,31.35
2022-12-04T02:04:31.623Z,33.10
2022-12-04T02:06:58.139Z,33.47
2022-12-04T02:09:27.066Z,33.15
2022-12-04T02:11:59.403Z,32.47
2022-12-04T02:15:05.005Z,34.03
2022-12-04T02:17:57.568Z,30.67
2022-12-04T02:20:39.679Z,33.60
2022-12-04T02:23:06.236Z,30.80
2022-12-04T02:26:03.701Z,32.97
2022-12-04T02:28:49.736Z,32.85
2022-12-04T02:31:26.383Z,33.63
2022-12-04T02:34:01.418Z,32.75
2022-12-04T02:36:31.886Z,32.42
2022-12-04T02:39:11.860Z,32.60
2022-12-04T02:41:44.994Z,32.83
2022-12-04T02:44:25.796Z,33.45
2022-12-04T02:47:02.405Z,33.30
2022-12-04T02:49:35.226Z,32.58
2022-12-04T02:52:06.724Z,32.55
2022-12-04T02:54:41.535Z,34.47
2022-12-04T02:57:13.983Z,33.53
2022-12-04T02:59:45.611Z,32.80
2022-12-04T03:02:22.652Z,34.58
2022-12-04T03:04:52.793Z,32.88
2022-12-04T03:07:27.993Z,34.33
2022-12-04T03:09:59.592Z,34.65
2022-12-04T03:12:36.115Z,34.33
2022-12-04T03:15:08.816Z,32.45
2022-12-04T03:17:42.468Z,35.72
2022-12-04T03:20:13.288Z,35.10
2022-12-04T03:22:44.222Z,33.50
2022-12-04T03:25:12.013Z,35.38
2022-12-04T03:27:57.718Z,33.38
2022-12-04T03:30:24.349Z,32.80
2022-12-04T03:32:58.125Z,34.88
2022-12-04T03:35:58.915Z,34.55
2022-12-04T03:38:33.503Z,32.72
2022-12-04T03:41:04.803Z,32.50
2022-12-04T03:43:53.957Z,32.08
2022-12-04T03:46:30.119Z,33.67
2022-12-04T03:49:23.700Z,34.45
2022-12-04T03:52:02.466Z,32.97
2022-12-04T03:54:34.243Z,31.92
2022-12-04T03:57:11.376Z,34.85
2022-12-04T03:59:43.275Z,34.08
2022-12-04T04:02:15.495Z,33.95
2022-12-04T04:04:45.068Z,33.65
2022-12-04T04:07:15.739Z,32.80
2022-12-04T04:09:47.590Z,32.67
2022-12-04T04:12:19.970Z,32.10
2022-12-04T04:15:30.566Z,33.55
2022-12-04T04:18:16.844Z,34.28
2022-12-04T04:21:08.755Z,33.35
2022-12-04T04:24:01.344Z,32.33
2022-12-04T04:26:32.399Z,32.22
2022-12-04T04:28:58.872Z,33.78
2022-12-04T04:31:29.520Z,34.42
2022-12-04T04:34:14.852Z,32.45
2022-12-04T04:36:50.314Z,32.15
2022-12-04T04:41:57.618Z,30.38
2022-12-04T04:44:30.215Z,30.48
2022-12-04T04:47:02.910Z,33.10
2022-12-04T04:49:33.431Z,34.13
2022-12-04T04:52:01.072Z,33.83
2022-12-04T04:54:29.596Z,31.92
2022-12-04T04:56:56.166Z,33.70
2022-12-04T04:59:22.708Z,34.42
2022-12-04T05:01:49.552Z,33.75
2022-12-04T05:04:16.141Z,33.75
2022-12-04T05:06:42.605Z,34.58
2022-12-04T05:09:09.114Z,34.90
2022-12-04T05:11:35.586Z,34.13
2022-12-04T05:14:02.162Z,34.60
2022-12-04T05:16:28.981Z,35.35
2022-12-04T05:19:14.080Z,33.63
2022-12-04T05:21:41.592Z,34.10
2022-12-04T05:24:09.337Z,35.55
2022-12-04T05:26:35.844Z,34.80
2022-12-04T05:29:02.396Z,33.20
2022-12-04T05:31:28.988Z,33.47
2022-12-04T05:33:56.392Z,33.42
2022-12-04T05:36:22.873Z,34.67
2022-12-04T05:38:49.344Z,33.85
2022-12-04T05:41:15.822Z,35.00
2022-12-04T05:43:42.383Z,33.67
2022-12-04T05:46:09.000Z,33.55
2022-12-04T05:48:36.093Z,33.22
2022-12-04T05:51:10.273Z,34.03
2022-12-04T05:53:37.329Z,33.97
2022-12-04T05:56:05.595Z,33.47
2022-12-04T05:58:35.996Z,31.88
2022-12-04T06:01:09.149Z,33.88
2022-12-04T06:03:35.882Z,32.15
2022-12-04T06:06:02.595Z,32.35
2022-12-04T06:08:29.088Z,33.20
2022-12-04T06:10:55.675Z,33.22
2022-12-04T06:13:22.283Z,34.17
2022-12-04T06:15:48.815Z,32.88
2022-12-04T06:18:15.428Z,32.80
2022-12-04T06:20:42.135Z,34.13
2022-12-04T06:23:08.696Z,32.47
2022-12-04T06:25:35.152Z,33.10
2022-12-04T06:28:01.642Z,32.63
2022-12-04T06:30:28.116Z,31.75
2022-12-04T06:32:54.820Z,32.92
2022-12-04T06:35:21.360Z,32.83
2022-12-04T06:37:48.158Z,31.95
2022-12-04T06:40:14.681Z,31.27
2022-12-04T06:42:41.191Z,32.15
2022-12-04T06:45:08.360Z,30.85
2022-12-04T06:47:36.269Z,31.80
2022-12-04T06:50:04.251Z,30.50
2022-12-04T06:52:33.911Z,31.10
2022-12-04T06:55:01.583Z,29.40
2022-12-04T06:57:28.304Z,30.10
2022-12-04T06:59:55.140Z,29.98
2022-12-04T07:02:22.166Z,27.80
2022-12-04T07:04:48.649Z,28.95
2022-12-04T07:07:15.315Z,28.85
2022-12-04T07:09:41.776Z,29.08
2022-12-04T07:12:08.282Z,28.25
2022-12-04T07:14:34.864Z,27.13
2022-12-04T07:17:01.464Z,27.75
2022-12-04T07:19:28.051Z,27.48
2022-12-04T07:21:54.572Z,27.73
2022-12-04T07:24:21.236Z,27.27
2022-12-04T07:26:53.740Z,26.30
2022-12-04T07:29:20.397Z,27.30
2022-12-04T07:31:46.907Z,25.55
2022-12-04T07:34:13.407Z,25.75
2022-12-04T07:36:40.795Z,28.23
2022-12-04T07:39:07.428Z,26.75
2022-12-04T07:41:33.992Z,27.85
2022-12-04T07:44:06.107Z,25.60
2022-12-04T07:46:32.829Z,26.58
2022-12-04T07:48:59.820Z,25.75
2022-12-04T07:51:28.515Z,27.58
2022-12-04T07:54:02.082Z,27.52
2022-12-04T07:56:30.078Z,25.02
2022-12-04T07:58:56.590Z,27.40
2022-12-04T08:01:24.226Z,25.73
2022-12-04T08:03:52.993Z,25.90
2022-12-04T08:06:21.961Z,25.65
2022-12-04T08:08:53.610Z,25.10
2022-12-04T08:11:22.627Z,25.95
2022-12-04T08:13:59.128Z,25.15
2022-12-04T08:16:27.107Z,24.73
2022-12-04T08:18:55.213Z,26.13
2022-12-04T08:21:24.184Z,25.35
2022-12-04T08:23:52.716Z,25.38
2022-12-04T08:26:21.318Z,24.58
2022-12-04T08:28:48.708Z,25.33
2022-12-04T08:31:20.947Z,24.88
2022-12-04T08:33:49.764Z,24.67
2022-12-04T08:36:19.350Z,24.35
2022-12-04T08:38:47.042Z,22.83
2022-12-04T08:41:19.701Z,24.88
2022-12-04T08:43:46.381Z,23.08
2022-12-04T08:46:15.683Z,24.55
2022-12-04T08:48:43.971Z,23.05
2022-12-04T08:51:19.848Z,23.27
2022-12-04T08:53:46.933Z,22.65
2022-12-04T08:56:14.042Z,21.95
2022-12-04T08:58:40.763Z,22.85
2022-12-04T09:01:09.695Z,22.70
2022-12-04T09:03:36.745Z,22.10
2022-12-04T09:06:04.657Z,21.05
2022-12-04T09:08:31.820Z,20.25
2022-12-04T09:11:07.411Z,20.70
2022-12-04T09:13:34.435Z,20.05
2022-12-04T09:16:04.592Z,19.13
2022-12-04T09:18:31.640Z,19.77
2022-12-04T09:20:59.809Z,19.30
2022-12-04T09:23:26.916Z,18.83
2022-12-04T09:25:53.839Z,20.88
2022-12-04T09:28:20.922Z,20.73
2022-12-04T09:31:00.603Z,19.48
2022-12-04T09:33:27.574Z,20.58
2022-12-04T09:35:54.654Z,19.70
2022-12-04T09:38:21.241Z,18.67
2022-12-04T09:40:59.292Z,21.08
2022-12-04T09:43:32.236Z,20.77
2022-12-04T09:46:08.332Z,21.15
2022-12-04T09:48:38.663Z,20.45
2022-12-04T09:51:06.999Z,19.98
2022-12-04T09:53:59.247Z,19.63
2022-12-04T09:56:29.078Z,20.75
2022-12-04T09:59:04.384Z,20.38
2022-12-04T10:01:46.319Z,21.25
2022-12-04T10:04:14.099Z,20.17
2022-12-04T10:06:46.533Z,19.88
2022-12-04T10:09:22.121Z,19.55
2022-12-04T10:12:02.269Z,20.02
2022-12-04T10:15:07.491Z,19.10
2022-12-04T10:18:04.043Z,19.75
2022-12-04T10:20:57.903Z,19.55
2022-12-04T10:23:54.048Z,20.25
2022-12-04T10:26:26.216Z,19.65
2022-12-04T10:29:08.710Z,19.98
2022-12-04T10:31:37.581Z,18.25
2022-12-04T10:34:21.274Z,21.00
2022-12-04T10:36:52.001Z,20.65
2022-12-04T10:39:25.825Z,20.10
2022-12-04T10:41:59.652Z,19.52
2022-12-04T10:44:26.263Z,19.65
2022-12-04T10:46:59.430Z,19.40
2022-12-04T10:49:29.175Z,20.23
2022-12-04T10:51:56.287Z,20.10
2022-12-04T10:54:32.790Z,20.08
2022-12-04T10:57:05.514Z,18.77
2022-12-04T10:59:33.047Z,20.42
2022-12-04T11:02:18.163Z,19.95
2022-12-04T11:04:55.976Z,18.35
2022-12-04T11:07:51.232Z,20.00
2022-12-04T11:10:38.364Z,19.60
2022-12-04T11:13:14.260Z,19.05
2022-12-04T11:15:50.228Z,19.98
2022-12-04T11:18:27.055Z,19.02
2022-12-04T11:21:13.615Z,19.08
2022-12-04T11:23:48.789Z,18.75
2022-12-04T11:26:36.740Z,18.33
2022-12-04T11:29:08.201Z,19.15
2022-12-04T11:31:34.750Z,20.40
2022-12-04T11:34:05.371Z,19.42
2022-12-04T11:36:40.597Z,20.67
2022-12-04T11:39:17.438Z,19.23
2022-12-04T11:41:44.268Z,20.30
2022-12-04T11:44:24.799Z,20.70
2022-12-04T11:46:56.508Z,19.92
2022-12-04T11:49:25.491Z,18.27
2022-12-04T11:52:01.004Z,18.83
2022-12-04T11:57:20.851Z,18.40
2022-12-04T12:00:00.078Z,18.38
2022-12-04T12:03:04.221Z,17.95
2022-12-04T12:05:36.913Z,18.30
2022-12-04T12:08:28.257Z,18.70
2022-12-04T12:11:02.889Z,18.25
2022-12-04T12:13:32.120Z,20.00
2022-12-04T12:16:29.539Z,18.02
2022-12-04T12:19:29.160Z,19.08
2022-12-04T12:22:21.764Z,18.83
2022-12-04T12:25:06.831Z,18.33
2022-12-04T12:28:20.359Z,19.17
2022-12-04T12:31:06.021Z,18.77
2022-12-04T12:33:46.408Z,18.77
2022-12-04T12:36:14.474Z,18.95
2022-12-04T12:38:48.777Z,18.98
2022-12-04T12:41:19.771Z,18.92
2022-12-04T12:44:00.675Z,19.02
2022-12-04T12:46:51.554Z,19.33
2022-12-04T12:49:23.053Z,18.10
2022-12-04T12:51:58.183Z,18.55
2022-12-04T12:54:49.086Z,17.85
2022-12-04T12:57:21.797Z,18.25
2022-12-04T12:59:55.471Z,17.88
2022-12-04T13:02:30.140Z,18.55
2022-12-04T13:05:05.585Z,19.05
2022-12-04T13:07:58.756Z,18.20
2022-12-04T13:10:31.929Z,18.30
2022-12-04T13:13:06.003Z,18.88
2022-12-04T13:15:41.289Z,16.95
2022-12-04T13:18:11.852Z,17.30
2022-12-04T13:20:50.270Z,18.90
2022-12-04T13:23:22.463Z,18.23
2022-12-04T13:26:11.033Z,18.52
2022-12-04T13:28:57.595Z,18.80
2022-12-04T13:31:35.234Z,17.48
2022-12-04T13:34:26.745Z,15.80
2022-12-04T13:36:53.130Z,17.83
2022-12-04T13:39:19.722Z,17.83
2022-12-04T13:41:46.708Z,17.58
2022-12-04T13:44:21.892Z,17.17
2022-12-04T13:47:00.021Z,17.90
2022-12-04T13:49:32.627Z,19.35
2022-12-04T13:52:04.651Z,19.40
2022-12-04T13:54:35.834Z,17.92
2022-12-04T13:57:14.667Z,18.45
2022-12-04T13:59:42.184Z,17.30
2022-12-04T14:02:22.886Z,18.63
2022-12-04T14:04:58.809Z,18.00
2022-12-04T14:07:37.489Z,17.55
2022-12-04T14:10:16.103Z,17.23
2022-12-04T14:12:50.076Z,17.80
2022-12-04T14:15:28.063Z,17.48
2022-12-04T14:18:01.648Z,16.75
2022-12-04T14:20:31.396Z,16.50
2022-12-04T14:23:09.238Z,17.25
2022-12-04T14:25:40.511Z,17.58
2022-12-04T14:28:21.975Z,16.27
2022-12-04T14:31:13.205Z,17.85
2022-12-04T14:33:47.355Z,17.73
2022-12-04T14:36:24.884Z,17.45
2022-12-04T14:39:04.296Z,17.60
2022-12-04T14:41:30.956Z,17.17
2022-12-04T14:43:57.607Z,16.42
2022-12-04T14:46:30.214Z,17.33
2022-12-04T14:49:53.917Z,17.98
2022-12-04T14:52:30.231Z,16.85
2022-12-04T14:55:18.383Z,17.48
2022-12-04T14:58:22.907Z,17.20
2022-12-04T15:00:55.027Z,16.90
2022-12-04T15:03:22.724Z,17.55
2022-12-04T15:05:51.114Z,17.20
2022-12-04T15:08:20.273Z,15.98
2022-12-04T15:11:10.094Z,15.68
2022-12-04T15:13:39.195Z,16.23
2022-12-04T15:16:23.905Z,15.55
2022-12-04T15:18:54.344Z,16.38
2022-12-04T15:21:21.790Z,16.98
2022-12-04T15:23:49.295Z,16.52
2022-12-04T15:26:18.701Z,16.17
2022-12-04T15:28:53.835Z,16.55
2022-12-04T15:31:28.286Z,16.63
2022-12-04T15:34:00.641Z,16.58
2022-12-04T15:36:58.740Z,16.67
2022-12-04T15:39:30.248Z,17.13
2022-12-04T15:42:20.102Z,16.85
2022-12-04T15:45:09.680Z,16.33
2022-12-04T15:47:42.257Z,16.30
2022-12-04T15:50:17.944Z,17.00
2022-12-04T15:52:55.096Z,16.45
2022-12-04T15:55:23.687Z,18.48
2022-12-04T15:57:56.618Z,17.77
2022-12-04T16:00:30.974Z,16.38
2022-12-04T16:02:58.916Z,16.95
2022-12-04T16:05:36.888Z,18.38
2022-12-04T16:08:30.841Z,17.05
2022-12-04T16:11:07.703Z,18.58
2022-12-04T16:13:37.388Z,18.33
2022-12-04T16:16:11.921Z,18.23
2022-12-04T16:18:39.459Z,18.57
2022-12-04T16:21:09.459Z,18.38
2022-12-04T16:23:35.901Z,17.85
2022-12-04T16:26:12.203Z,19.60
2022-12-04T16:28:40.764Z,19.05
2022-12-04T16:31:08.877Z,19.27
2022-12-04T16:33:35.367Z,18.75
2022-12-04T16:36:01.832Z,18.58
2022-12-04T16:38:29.417Z,18.90
2022-12-04T16:40:56.171Z,19.70
2022-12-04T16:43:23.073Z,20.45
2022-12-04T16:45:53.468Z,19.55
2022-12-04T16:48:20.101Z,19.27
2022-12-04T16:50:47.664Z,19.33
2022-12-04T16:53:19.814Z,20.20
2022-12-04T16:55:49.115Z,19.70
2022-12-04T16:58:16.933Z,20.95
2022-12-04T17:00:46.043Z,21.75
2022-12-04T17:03:19.016Z,23.33
2022-12-04T17:05:45.532Z,20.15
2022-12-04T17:08:12.186Z,21.50
2022-12-04T17:10:38.745Z,21.75
2022-12-04T17:13:05.215Z,23.15
2022-12-04T17:15:31.960Z,21.38
2022-12-04T17:17:58.444Z,21.10
2022-12-04T17:20:24.941Z,22.13
2022-12-04T17:22:51.393Z,21.73
2022-12-04T17:25:18.271Z,21.98
2022-12-04T17:27:45.233Z,23.05
2022-12-04T17:30:12.398Z,21.85
2022-12-04T17:32:38.937Z,23.38
2022-12-04T17:35:07.189Z,22.50
2022-12-04T17:37:35.063Z,20.95
2022-12-04T17:40:01.980Z,22.20
2022-12-04T17:42:28.479Z,21.98
2022-12-04T17:44:55.460Z,21.48
2022-12-04T17:47:22.257Z,22.85
2022-12-04T17:49:48.832Z,21.15
2022-12-04T17:52:15.440Z,22.08
2022-12-04T17:54:43.998Z,20.50
2022-12-04T17:57:10.641Z,20.45
2022-12-04T17:59:37.180Z,20.40
2022-12-04T18:02:03.993Z,21.67
2022-12-04T18:04:30.606Z,20.05
2022-12-04T18:06:57.072Z,19.20
2022-12-04T18:09:23.660Z,20.52
2022-12-04T18:11:50.239Z,19.67
2022-12-04T18:14:19.279Z,20.13
2022-12-04T18:16:54.047Z,19.65
2022-12-04T18:19:26.468Z,19.05
2022-12-04T18:21:54.235Z,20.33
2022-12-04T18:24:22.441Z,19.13
2022-12-04T18:26:50.504Z,19.92
2022-12-04T18:29:23.224Z,19.40
2022-12-04T18:31:51.058Z,19.60
2022-12-04T18:34:18.126Z,19.55
2022-12-04T18:36:45.449Z,18.60
2022-12-04T18:39:22.908Z,18.35
2022-12-04T18:41:49.541Z,18.92
2022-12-04T18:44:17.324Z,18.63
2022-12-04T18:46:43.855Z,19.05
2022-12-04T18:49:11.108Z,18.88
2022-12-04T18:51:40.559Z,17.92
2022-12-04T18:54:10.981Z,19.98
2022-12-04T18:56:37.993Z,19.48
2022-12-04T18:59:10.936Z,19.77
2022-12-04T19:01:38.598Z,18.63
2022-12-04T19:04:09.388Z,19.42
2022-12-04T19:06:41.517Z,19.27
2022-12-04T19:09:11.685Z,19.98
2022-12-04T19:11:39.047Z,18.80
2022-12-04T19:14:14.767Z,20.58
2022-12-04T19:16:45.020Z,18.95
2022-12-04T19:19:12.905Z,19.25
2022-12-04T19:21:39.503Z,19.25
2022-12-04T19:24:06.500Z,19.40
2022-12-04T19:26:34.298Z,19.65
2022-12-04T19:29:02.316Z,18.90
2022-12-04T19:31:31.761Z,19.27
2022-12-04T19:33:59.133Z,19.08
2022-12-04T19:36:28.086Z,19.42
2022-12-04T19:38:56.283Z,18.75
2022-12-04T19:41:25.816Z,19.27
2022-12-04T19:43:55.721Z,18.67
2022-12-04T19:46:25.894Z,18.88
2022-12-04T19:48:58.331Z,19.27
2022-12-04T19:51:26.154Z,19.52
2022-12-04T19:53:54.864Z,19.55
2022-12-04T19:56:24.535Z,19.45
2022-12-04T19:58:53.115Z,20.38
2022-12-04T20:01:24.079Z,19.08
2022-12-04T20:03:50.998Z,19.20
2022-12-04T20:06:19.794Z,19.13
2022-12-04T20:08:47.247Z,20.40
2022-12-04T20:11:17.419Z,20.25
2022-12-04T20:13:45.926Z,19.88
2022-12-04T20:16:14.897Z,20.80
2022-12-04T20:18:42.433Z,21.15
2022-12-04T20:21:12.708Z,21.10
2022-12-04T20:23:44.067Z,21.48
2022-12-04T20:26:13.318Z,21.40
2022-12-04T20:28:40.816Z,22.13
2022-12-04T20:31:26.165Z,21.70
2022-12-04T20:33:54.652Z,21.77
2022-12-04T20:36:23.205Z,22.25
2022-12-04T20:38:52.224Z,21.55
2022-12-04T20:41:18.862Z,21.63
2022-12-04T20:43:47.508Z,22.45
2022-12-04T20:46:14.139Z,22.05
2022-12-04T20:48:46.425Z,22.45
2022-12-04T20:51:12.903Z,22.00
2022-12-04T20:53:39.504Z,23.80
2022-12-04T20:56:07.852Z,21.67
2022-12-04T20:58:34.360Z,23.88
2022-12-04T21:01:08.237Z,23.40
2022-12-04T21:03:34.948Z,22.90
2022-12-04T21:06:01.509Z,23.15
2022-12-04T21:08:47.023Z,22.25
2022-12-04T21:11:13.627Z,22.95
2022-12-04T21:13:58.578Z,22.45
2022-12-04T21:16:25.040Z,23.48
2022-12-04T21:18:51.532Z,23.02
2022-12-04T21:21:18.013Z,23.48
2022-12-04T21:23:44.456Z,23.83
2022-12-04T21:26:11.088Z,24.05
2022-12-04T21:28:37.632Z,24.50
2022-12-04T21:31:06.066Z,23.88
2022-12-04T21:33:34.311Z,24.48
2022-12-04T21:36:06.846Z,24.27
2022-12-04T21:38:38.531Z,25.30
2022-12-04T21:41:08.270Z,25.40
2022-12-04T21:43:36.383Z,25.92
2022-12-04T21:46:09.574Z,26.55
2022-12-04T21:48:37.141Z,25.88
2022-12-04T21:51:21.220Z,27.20
2022-12-04T21:53:54.738Z,26.90
2022-12-04T21:56:26.099Z,26.55
2022-12-04T21:58:52.911Z,27.17
2022-12-04T22:01:21.891Z,27.13
2022-12-04T22:03:48.604Z,26.42
2022-12-04T22:06:15.110Z,27.33
2022-12-04T22:08:41.975Z,27.83
2022-12-04T22:11:10.565Z,26.85
2022-12-04T22:13:38.025Z,28.20
2022-12-04T22:16:07.735Z,27.88
2022-12-04T22:18:34.958Z,28.20
2022-12-04T22:21:05.855Z,27.17
2022-12-04T22:23:33.614Z,27.27
2022-12-04T22:26:08.227Z,27.65
2022-12-04T22:28:36.158Z,27.02
2022-12-04T22:31:09.515Z,28.40
2022-12-04T22:33:44.622Z,26.23
2022-12-04T22:36:13.403Z,26.70
2022-12-04T22:38:52.660Z,28.27
2022-12-04T22:41:27.145Z,28.40
2022-12-04T22:43:53.767Z,28.75
2022-12-04T22:46:20.555Z,28.35
2022-12-04T22:48:47.184Z,27.85
2022-12-04T22:51:16.615Z,27.50
2022-12-04T22:53:46.235Z,28.08
2022-12-04T22:56:31.229Z,29.02
2022-12-04T22:58:59.103Z,28.30
2022-12-04T23:01:28.940Z,29.33
2022-12-04T23:03:56.034Z,28.58
2022-12-04T23:06:26.388Z,29.15
2022-12-04T23:08:58.435Z,29.52
2022-12-04T23:11:26.107Z,28.30
2022-12-04T23:14:00.160Z,29.75
2022-12-04T23:16:28.015Z,29.17
2022-12-04T23:18:55.033Z,29.65
2022-12-04T23:21:22.924Z,28.48
2022-12-04T23:23:50.999Z,29.25
2022-12-04T23:26:21.451Z,28.38
2022-12-04T23:28:48.490Z,29.38
2022-12-04T23:31:15.801Z,29.02
2022-12-04T23:33:42.455Z,29.27
2022-12-04T23:36:11.507Z,27.63
2022-12-04T23:38:42.511Z,27.80
2022-12-04T23:41:15.846Z,29.60
2022-12-04T23:43:43.183Z,27.70
2022-12-04T23:46:11.762Z,28.67
2022-12-04T23:48:40.141Z,31.13
2022-12-04T23:51:07.616Z,28.73
2022-12-04T23:53:34.284Z,30.63
2022-12-04T23:56:09.527Z,29.25
2022-12-04T23:58:36.351Z,29.15
